createdAt,value
2022-12-12T00:01:33.737Z,96031.00
2022-12-12T00:04:02.314Z,96034.00
2022-12-12T00:06:31.650Z,96023.00
2022-12-12T00:08:59.926Z,96031.00
2022-12-12T00:11:29.522Z,96025.00
2022-12-12T00:13:58.426Z,96025.00
2022-12-12T00:16:26.811Z,96027.00
2022-12-12T00:18:55.513Z,96009.00
2022-12-12T00:21:26.859Z,96022.00
2022-12-12T00:23:55.963Z,96022.00
2022-12-12T00:26:29.558Z,96012.00
2022-12-12T00:28:59.449Z,96024.00
2022-12-12T00:31:28.345Z,96029.00
2022-12-12T00:33:57.068Z,96041.00
2022-12-12T00:36:28.148Z,96057.00
2022-12-12T00:38:57.242Z,96028.00
2022-12-12T00:41:26.067Z,96029.00
2022-12-12T00:43:55.609Z,96040.00
2022-12-12T00:46:27.088Z,96040.00
2022-12-12T00:48:57.570Z,96040.00
2022-12-12T00:51:27.985Z,96044.00
2022-12-12T00:53:57.851Z,96057.00
2022-12-12T00:56:27.042Z,96061.00
2022-12-12T00:58:56.594Z,96063.00
2022-12-12T01:01:28.134Z,96063.00
2022-12-12T01:03:56.495Z,96038.00
2022-12-12T01:06:25.362Z,96046.00
2022-12-12T01:08:54.799Z,96056.00
2022-12-12T01:11:24.381Z,96052.00
2022-12-12T01:13:55.005Z,96055.00
2022-12-12T01:16:25.708Z,96064.00
2022-12-12T01:18:54.201Z,96084.00
2022-12-12T01:21:22.812Z,96064.00
2022-12-12T01:23:51.219Z,96073.00
2022-12-12T01:26:24.069Z,96075.00
2022-12-12T01:28:53.453Z,96055.00
2022-12-12T01:31:22.146Z,96062.00
2022-12-12T01:33:52.357Z,96025.00
2022-12-12T01:36:23.707Z,96068.00
2022-12-12T01:38:56.775Z,96068.00
2022-12-12T01:41:25.675Z,96089.00
2022-12-12T01:43:55.074Z,96028.00
2022-12-12T01:46:45.623Z,96071.00
2022-12-12T01:49:24.372Z,96072.00
2022-12-12T01:51:57.665Z,96063.00
2022-12-12T01:54:30.097Z,96059.00
2022-12-12T01:57:04.175Z,96069.00
2022-12-12T01:59:36.106Z,96062.00
2022-12-12T02:02:05.404Z,96059.00
2022-12-12T02:04:35.880Z,96026.00
2022-12-12T02:07:05.394Z,96052.00
2022-12-12T02:09:36.164Z,96067.00
2022-12-12T02:12:05.045Z,96078.00
2022-12-12T02:14:38.922Z,96072.00
2022-12-12T02:17:54.577Z,96076.00
2022-12-12T02:20:52.884Z,96086.00
2022-12-12T02:24:01.676Z,96094.00
2022-12-12T02:27:15.177Z,96092.00
2022-12-12T02:30:17.793Z,96078.00
2022-12-12T02:33:26.745Z,96087.00
2022-12-12T02:36:12.608Z,96012.00
2022-12-12T02:38:57.010Z,95974.00
2022-12-12T02:41:36.035Z,96068.00
2022-12-12T02:44:19.779Z,96085.00
2022-12-12T02:46:56.969Z,96090.00
2022-12-12T02:49:35.011Z,96084.00
2022-12-12T02:52:05.598Z,96090.00
2022-12-12T02:54:34.903Z,96088.00
2022-12-12T02:57:04.158Z,96071.00
2022-12-12T02:59:37.864Z,96090.00
2022-12-12T03:02:48.067Z,96108.00
2022-12-12T03:06:00.848Z,96078.00
2022-12-12T03:08:49.638Z,96078.00
2022-12-12T03:11:33.129Z,96075.00
2022-12-12T03:14:12.855Z,96030.00
2022-12-12T03:16:51.769Z,96081.00
2022-12-12T03:19:29.384Z,96082.00
2022-12-12T03:22:08.433Z,96088.00
2022-12-12T03:24:48.818Z,96098.00
2022-12-12T03:27:25.131Z,96082.00
2022-12-12T03:29:57.851Z,96085.00
2022-12-12T03:32:31.639Z,96079.00
2022-12-12T03:35:07.878Z,96091.00
2022-12-12T03:37:42.686Z,96077.00
2022-12-12T03:40:18.215Z,96090.00
2022-12-12T03:42:54.282Z,96092.00
2022-12-12T03:45:31.794Z,96094.00
2022-12-12T03:48:08.250Z,96091.00
2022-12-12T03:50:43.666Z,96092.00
2022-12-12T03:53:22.098Z,96062.00
2022-12-12T03:55:56.639Z,96080.00
2022-12-12T03:58:31.890Z,96087.00
2022-12-12T04:01:04.403Z,96109.00
2022-12-12T04:03:41.946Z,96123.00
2022-12-12T04:06:29.541Z,96085.00
2022-12-12T04:09:20.145Z,95997.00
2022-12-12T04:12:22.101Z,96090.00
2022-12-12T04:15:23.700Z,96096.00
2022-12-12T04:18:09.614Z,96098.00
2022-12-12T04:21:03.287Z,96099.00
2022-12-12T04:23:40.190Z,96104.00
2022-12-12T04:26:36.477Z,96111.00
2022-12-12T04:29:17.775Z,96099.00
2022-12-12T04:31:53.058Z,96100.00
2022-12-12T04:34:43.438Z,96113.00
2022-12-12T04:37:17.630Z,96032.00
2022-12-12T04:39:50.154Z,96103.00
2022-12-12T04:42:25.383Z,96114.00
2022-12-12T04:44:58.989Z,96107.00
2022-12-12T04:47:31.065Z,96109.00
2022-12-12T04:50:03.454Z,96107.00
2022-12-12T04:52:34.703Z,96115.00
2022-12-12T04:55:10.104Z,96085.00
2022-12-12T04:57:50.444Z,96129.00
2022-12-12T05:00:20.420Z,96106.00
2022-12-12T05:02:57.990Z,96122.00
2022-12-12T05:05:31.196Z,96125.00
2022-12-12T05:08:08.682Z,96134.00
2022-12-12T05:10:44.048Z,96142.00
2022-12-12T05:13:19.816Z,96130.00
2022-12-12T05:15:50.568Z,96144.00
2022-12-12T05:18:18.934Z,96121.00
2022-12-12T05:20:47.363Z,96144.00
2022-12-12T05:23:15.599Z,96148.00
2022-12-12T05:25:43.703Z,96135.00
2022-12-12T05:28:12.275Z,96143.00
2022-12-12T05:30:41.757Z,96139.00
2022-12-12T05:33:09.925Z,96129.00
2022-12-12T05:35:38.075Z,96127.00
2022-12-12T05:38:06.161Z,96123.00
2022-12-12T05:40:36.010Z,96114.00
2022-12-12T05:43:04.791Z,96135.00
2022-12-12T05:45:32.860Z,96144.00
2022-12-12T05:48:02.341Z,96128.00
2022-12-12T05:50:30.414Z,96144.00
2022-12-12T05:52:58.560Z,96153.00
2022-12-12T05:55:26.724Z,96147.00
2022-12-12T05:57:54.793Z,96143.00
2022-12-12T06:00:23.136Z,96146.00
2022-12-12T06:02:51.240Z,96157.00
2022-12-12T06:05:21.040Z,96149.00
2022-12-12T06:07:49.149Z,96147.00
2022-12-12T06:10:17.448Z,96154.00
2022-12-12T06:12:45.482Z,96174.00
2022-12-12T06:15:15.591Z,96167.00
2022-12-12T06:17:43.816Z,96154.00
2022-12-12T06:20:12.627Z,96153.00
2022-12-12T06:22:42.927Z,96161.00
2022-12-12T06:25:12.033Z,96173.00
2022-12-12T06:27:40.446Z,96159.00
2022-12-12T06:30:10.873Z,96158.00
2022-12-12T06:32:38.948Z,96153.00
2022-12-12T06:35:07.860Z,96122.00
2022-12-12T06:37:36.159Z,96154.00
2022-12-12T06:40:06.894Z,96153.00
2022-12-12T06:42:35.015Z,96160.00
2022-12-12T06:45:03.840Z,96155.00
2022-12-12T06:47:31.948Z,96160.00
2022-12-12T06:50:00.066Z,96176.00
2022-12-12T06:52:28.108Z,96163.00
2022-12-12T06:54:56.175Z,96152.00
2022-12-12T06:57:25.609Z,96158.00
2022-12-12T06:59:53.782Z,96158.00
2022-12-12T07:02:27.723Z,96178.00
2022-12-12T07:04:58.157Z,96168.00
2022-12-12T07:07:26.584Z,96184.00
2022-12-12T07:09:54.672Z,96180.00
2022-12-12T07:12:22.818Z,96172.00
2022-12-12T07:14:52.469Z,96174.00
2022-12-12T07:17:20.541Z,96180.00
2022-12-12T07:19:48.641Z,96184.00
2022-12-12T07:22:16.761Z,96187.00
2022-12-12T07:24:44.872Z,96202.00
2022-12-12T07:27:15.748Z,96196.00
2022-12-12T07:29:48.305Z,96185.00
2022-12-12T07:32:17.702Z,96201.00
2022-12-12T07:34:45.867Z,96202.00
2022-12-12T07:37:13.907Z,96186.00
2022-12-12T07:39:41.985Z,96195.00
2022-12-12T07:42:10.106Z,96204.00
2022-12-12T07:44:38.341Z,96189.00
2022-12-12T07:47:06.639Z,96193.00
2022-12-12T07:49:36.090Z,96202.00
2022-12-12T07:52:04.791Z,96167.00
2022-12-12T07:54:32.964Z,96199.00
2022-12-12T07:57:01.164Z,96213.00
2022-12-12T07:59:29.407Z,96200.00
2022-12-12T08:01:57.518Z,96213.00
2022-12-12T08:04:25.679Z,96213.00
2022-12-12T08:07:02.704Z,96217.00
2022-12-12T08:09:33.697Z,96218.00
2022-12-12T08:12:01.778Z,96211.00
2022-12-12T08:14:30.114Z,96229.00
2022-12-12T08:16:58.624Z,96209.00
2022-12-12T08:19:26.812Z,96221.00
2022-12-12T08:21:56.338Z,96218.00
2022-12-12T08:24:24.446Z,96218.00
2022-12-12T08:26:53.093Z,96238.00
2022-12-12T08:29:21.482Z,96251.00
2022-12-12T08:31:49.977Z,96231.00
2022-12-12T08:34:19.253Z,96234.00
2022-12-12T08:36:47.568Z,96244.00
2022-12-12T08:39:17.872Z,96132.00
2022-12-12T08:41:48.992Z,96248.00
2022-12-12T08:44:19.672Z,96230.00
2022-12-12T08:46:48.924Z,96242.00
2022-12-12T08:49:17.792Z,96247.00
2022-12-12T08:51:46.046Z,96241.00
2022-12-12T08:54:15.840Z,96250.00
2022-12-12T08:56:43.904Z,96259.00
2022-12-12T08:59:12.016Z,96287.00
2022-12-12T09:01:40.583Z,96279.00
2022-12-12T09:04:08.920Z,96275.00
2022-12-12T09:06:37.148Z,96264.00
2022-12-12T09:09:05.406Z,96269.00
2022-12-12T09:11:34.788Z,96272.00
2022-12-12T09:14:03.493Z,96285.00
2022-12-12T09:16:31.670Z,96299.00
2022-12-12T09:18:59.817Z,96290.00
2022-12-12T09:21:28.170Z,96293.00
2022-12-12T09:23:56.398Z,96244.00
2022-12-12T09:26:24.417Z,96264.00
2022-12-12T09:28:53.939Z,96273.00
2022-12-12T09:31:22.563Z,96195.00
2022-12-12T09:33:50.927Z,96269.00
2022-12-12T09:36:19.297Z,96276.00
2022-12-12T09:38:47.415Z,96281.00
2022-12-12T09:41:19.787Z,96288.00
2022-12-12T09:43:58.825Z,96288.00
2022-12-12T09:46:35.205Z,96278.00
2022-12-12T09:49:18.270Z,96278.00
2022-12-12T09:51:51.773Z,96274.00
2022-12-12T09:54:23.513Z,96262.00
2022-12-12T09:57:13.198Z,96282.00
2022-12-12T09:59:52.457Z,96267.00
2022-12-12T10:03:02.268Z,96277.00
2022-12-12T10:05:38.705Z,96277.00
2022-12-12T10:08:20.998Z,96286.00
2022-12-12T10:10:54.637Z,96278.00
2022-12-12T10:13:27.545Z,96279.00
2022-12-12T10:16:03.960Z,96274.00
2022-12-12T10:18:37.491Z,96281.00
2022-12-12T10:21:15.509Z,96278.00
2022-12-12T10:23:50.568Z,96300.00
2022-12-12T10:26:22.819Z,96278.00
2022-12-12T10:28:55.690Z,96269.00
2022-12-12T10:31:40.461Z,96292.00
2022-12-12T10:34:27.652Z,96279.00
2022-12-12T10:37:16.946Z,96278.00
2022-12-12T10:40:00.293Z,96293.00
2022-12-12T10:42:39.574Z,96288.00
2022-12-12T10:45:31.915Z,96297.00
2022-12-12T10:48:02.274Z,96292.00
2022-12-12T10:50:37.111Z,96269.00
2022-12-12T10:53:09.251Z,96275.00
2022-12-12T10:55:48.461Z,96278.00
2022-12-12T10:58:18.193Z,96272.00
2022-12-12T11:00:49.402Z,96177.00
2022-12-12T11:03:29.009Z,96316.00
2022-12-12T11:05:58.690Z,96318.00
2022-12-12T11:08:33.742Z,96288.00
2022-12-12T11:11:07.910Z,96275.00
2022-12-12T11:13:50.885Z,96278.00
2022-12-12T11:16:22.992Z,96278.00
2022-12-12T11:19:07.191Z,96277.00
2022-12-12T11:21:39.476Z,96282.00
2022-12-12T11:24:15.311Z,96280.00
2022-12-12T11:26:49.927Z,96278.00
2022-12-12T11:29:35.740Z,96280.00
2022-12-12T11:32:04.786Z,96287.00
2022-12-12T11:34:40.158Z,96330.00
2022-12-12T11:37:15.852Z,96302.00
2022-12-12T11:39:47.685Z,96320.00
2022-12-12T11:42:23.467Z,96304.00
2022-12-12T11:45:02.652Z,96304.00
2022-12-12T11:47:39.231Z,96286.00
2022-12-12T11:50:22.325Z,96301.00
2022-12-12T11:52:53.988Z,96305.00
2022-12-12T11:55:37.974Z,96291.00
2022-12-12T11:58:18.544Z,96280.00
2022-12-12T12:00:58.497Z,96296.00
2022-12-12T12:03:58.315Z,96290.00
2022-12-12T12:06:45.180Z,96311.00
2022-12-12T12:09:36.751Z,96309.00
2022-12-12T12:12:13.983Z,96303.00
2022-12-12T12:15:04.429Z,96279.00
2022-12-12T12:17:57.993Z,96306.00
2022-12-12T12:20:49.005Z,96301.00
2022-12-12T12:23:41.387Z,96298.00
2022-12-12T12:26:20.242Z,96293.00
2022-12-12T12:29:40.545Z,96288.00
2022-12-12T12:32:20.843Z,96276.00
2022-12-12T12:35:09.451Z,96278.00
2022-12-12T12:37:51.677Z,96281.00
2022-12-12T12:40:41.560Z,96306.00
2022-12-12T12:43:30.370Z,96305.00
2022-12-12T12:46:11.997Z,96299.00
2022-12-12T12:48:46.280Z,96311.00
2022-12-12T12:51:22.540Z,96262.00
2022-12-12T12:53:56.789Z,96306.00
2022-12-12T12:56:30.602Z,96284.00
2022-12-12T12:59:03.297Z,96299.00
2022-12-12T13:01:36.933Z,96295.00
2022-12-12T13:04:16.234Z,96292.00
2022-12-12T13:06:51.586Z,96307.00
2022-12-12T13:09:35.288Z,96309.00
2022-12-12T13:12:29.838Z,96291.00
2022-12-12T13:15:05.282Z,96283.00
2022-12-12T13:17:49.416Z,96294.00
2022-12-12T13:20:22.982Z,96301.00
2022-12-12T13:23:26.448Z,96309.00
2022-12-12T13:26:02.843Z,96234.00
2022-12-12T13:28:39.749Z,96287.00
2022-12-12T13:31:36.732Z,96312.00
2022-12-12T13:34:09.950Z,96306.00
2022-12-12T13:36:42.709Z,96323.00
2022-12-12T13:39:28.540Z,96318.00
2022-12-12T13:42:01.569Z,96314.00
2022-12-12T13:44:44.554Z,96319.00
2022-12-12T13:47:55.260Z,96301.00
2022-12-12T13:50:24.713Z,96332.00
2022-12-12T13:53:20.218Z,96323.00
2022-12-12T13:55:48.512Z,96326.00
2022-12-12T13:58:35.713Z,96327.00
2022-12-12T14:01:39.114Z,96334.00
2022-12-12T14:04:25.417Z,96349.00
2022-12-12T14:07:02.491Z,96335.00
2022-12-12T14:09:47.103Z,96317.00
2022-12-12T14:12:30.691Z,96344.00
2022-12-12T14:15:06.192Z,96327.00
2022-12-12T14:17:42.503Z,96328.00
2022-12-12T14:20:28.260Z,96334.00
2022-12-12T14:23:25.649Z,96323.00
2022-12-12T14:25:54.414Z,96326.00
2022-12-12T14:28:26.089Z,96326.00
2022-12-12T14:31:00.407Z,96328.00
2022-12-12T14:34:05.444Z,96331.00
2022-12-12T14:37:16.837Z,96339.00
2022-12-12T14:40:14.314Z,96363.00
2022-12-12T14:43:18.936Z,96349.00
2022-12-12T14:45:54.936Z,96350.00
2022-12-12T14:48:26.553Z,96356.00
2022-12-12T14:51:03.911Z,96356.00
2022-12-12T14:53:44.567Z,96355.00
2022-12-12T14:56:16.126Z,96368.00
2022-12-12T14:58:50.700Z,96363.00
2022-12-12T15:01:30.721Z,96379.00
2022-12-12T15:04:00.655Z,96368.00
2022-12-12T15:06:40.504Z,96372.00
2022-12-12T15:09:17.885Z,96356.00
2022-12-12T15:11:48.292Z,96375.00
2022-12-12T15:14:22.073Z,96382.00
2022-12-12T15:16:56.753Z,96362.00
2022-12-12T15:19:30.864Z,96378.00
2022-12-12T15:22:00.746Z,96365.00
2022-12-12T15:24:37.702Z,96350.00
2022-12-12T15:27:07.547Z,96362.00
2022-12-12T15:29:38.763Z,96349.00
2022-12-12T15:32:15.290Z,96366.00
2022-12-12T15:34:47.154Z,96388.00
2022-12-12T15:37:27.362Z,96384.00
2022-12-12T15:40:11.718Z,96356.00
2022-12-12T15:42:42.754Z,96375.00
2022-12-12T15:45:20.591Z,96393.00
2022-12-12T15:47:49.365Z,96373.00
2022-12-12T15:50:21.815Z,96357.00
2022-12-12T15:53:06.623Z,96362.00
2022-12-12T15:55:36.452Z,96383.00
2022-12-12T15:58:04.713Z,96288.00
2022-12-12T16:00:39.662Z,96361.00
2022-12-12T16:03:23.654Z,96383.00
2022-12-12T16:06:05.533Z,96366.00
2022-12-12T16:08:47.621Z,96363.00
2022-12-12T16:11:38.417Z,96358.00
2022-12-12T16:14:25.633Z,96375.00
2022-12-12T16:16:59.110Z,96364.00
2022-12-12T16:19:54.847Z,96373.00
2022-12-12T16:22:35.215Z,96364.00
2022-12-12T16:25:19.852Z,96341.00
2022-12-12T16:27:52.892Z,96367.00
2022-12-12T16:30:21.149Z,96379.00
2022-12-12T16:32:49.730Z,96377.00
2022-12-12T16:35:20.370Z,96373.00
2022-12-12T16:37:49.116Z,96373.00
2022-12-12T16:40:20.813Z,96387.00
2022-12-12T16:43:01.140Z,96384.00
2022-12-12T16:45:30.777Z,96381.00
2022-12-12T16:47:59.718Z,96384.00
2022-12-12T16:50:28.740Z,96389.00
2022-12-12T16:52:56.785Z,96375.00
2022-12-12T16:55:26.887Z,96377.00
2022-12-12T16:57:54.957Z,96387.00
2022-12-12T17:00:23.275Z,96398.00
2022-12-12T17:02:51.381Z,96391.00
2022-12-12T17:05:23.828Z,96395.00
2022-12-12T17:07:53.061Z,96389.00
2022-12-12T17:10:24.471Z,96389.00
2022-12-12T17:12:55.133Z,96410.00
2022-12-12T17:15:25.997Z,96384.00
2022-12-12T17:17:54.207Z,96324.00
2022-12-12T17:20:22.712Z,96397.00
2022-12-12T17:22:52.123Z,96389.00
2022-12-12T17:25:22.714Z,96323.00
2022-12-12T17:27:53.274Z,96379.00
2022-12-12T17:30:22.662Z,96387.00
2022-12-12T17:35:37.447Z,96387.00
2022-12-12T17:38:06.451Z,96398.00
2022-12-12T17:40:35.738Z,96391.00
2022-12-12T17:43:05.162Z,96389.00
2022-12-12T17:45:33.237Z,96402.00
2022-12-12T17:48:01.330Z,96409.00
2022-12-12T17:50:29.466Z,96409.00
2022-12-12T17:52:57.532Z,96416.00
2022-12-12T17:55:52.206Z,96477.00
2022-12-12T17:58:15.360Z,96419.00
2022-12-12T18:00:43.443Z,96425.00
2022-12-12T18:03:11.527Z,96431.00
2022-12-12T18:05:39.663Z,96421.00
2022-12-12T18:08:08.883Z,96417.00
2022-12-12T18:10:37.955Z,96405.00
2022-12-12T18:13:06.341Z,96400.00
2022-12-12T18:15:35.733Z,96422.00
2022-12-12T18:18:03.857Z,96429.00
2022-12-12T18:20:31.977Z,96422.00
2022-12-12T18:23:00.173Z,96426.00
2022-12-12T18:25:28.264Z,96409.00
2022-12-12T18:27:56.347Z,96421.00
2022-12-12T18:30:24.409Z,96418.00
2022-12-12T18:32:59.744Z,96421.00
2022-12-12T18:35:30.889Z,96424.00
2022-12-12T18:37:59.363Z,96416.00
2022-12-12T18:40:27.977Z,96419.00
2022-12-12T18:42:56.476Z,96435.00
2022-12-12T18:45:24.968Z,96431.00
2022-12-12T18:47:55.634Z,96426.00
2022-12-12T18:50:23.839Z,96429.00
2022-12-12T18:52:52.028Z,96428.00
2022-12-12T18:55:20.155Z,96413.00
2022-12-12T18:57:48.261Z,96417.00
2022-12-12T19:00:18.311Z,96416.00
2022-12-12T19:02:46.360Z,96408.00
2022-12-12T19:05:15.759Z,96399.00
2022-12-12T19:07:44.276Z,96416.00
2022-12-12T19:10:12.690Z,96407.00
2022-12-12T19:12:41.173Z,96415.00
2022-12-12T19:15:18.571Z,96420.00
2022-12-12T19:17:46.799Z,96420.00
2022-12-12T19:20:16.669Z,96421.00
2022-12-12T19:22:46.423Z,96416.00
2022-12-12T19:25:15.498Z,96413.00
2022-12-12T19:27:43.602Z,96416.00
2022-12-12T19:30:14.891Z,96414.00
2022-12-12T19:32:43.644Z,96418.00
2022-12-12T19:35:11.757Z,96427.00
2022-12-12T19:37:41.162Z,96409.00
2022-12-12T19:40:11.465Z,96408.00
2022-12-12T19:42:39.957Z,96415.00
2022-12-12T19:45:10.315Z,96410.00
2022-12-12T19:47:38.379Z,96418.00
2022-12-12T19:50:07.352Z,96410.00
2022-12-12T19:52:35.422Z,96419.00
2022-12-12T19:55:05.759Z,96415.00
2022-12-12T19:57:33.890Z,96421.00
2022-12-12T20:00:01.964Z,96433.00
2022-12-12T20:02:37.703Z,96384.00
2022-12-12T20:05:06.624Z,96408.00
2022-12-12T20:07:34.738Z,96404.00
2022-12-12T20:10:04.518Z,96347.00
2022-12-12T20:12:32.899Z,96396.00
2022-12-12T20:15:01.009Z,96401.00
2022-12-12T20:17:29.027Z,96393.00
2022-12-12T20:19:58.126Z,96402.00
2022-12-12T20:22:26.174Z,96398.00
2022-12-12T20:24:54.329Z,96417.00
2022-12-12T20:27:24.487Z,96420.00
2022-12-12T20:29:52.529Z,96433.00
2022-12-12T20:32:21.164Z,96407.00
2022-12-12T20:34:49.731Z,96416.00
2022-12-12T20:37:20.131Z,96401.00
2022-12-12T20:39:48.435Z,96415.00
2022-12-12T20:42:16.530Z,96415.00
2022-12-12T20:44:45.956Z,96421.00
2022-12-12T20:47:17.176Z,96413.00
2022-12-12T20:49:45.298Z,96409.00
2022-12-12T20:52:13.605Z,96408.00
2022-12-12T20:54:41.686Z,96404.00
2022-12-12T20:57:09.816Z,96421.00
2022-12-12T20:59:38.218Z,96426.00
2022-12-12T21:02:07.920Z,96408.00
2022-12-12T21:04:35.985Z,96433.00
2022-12-12T21:07:04.162Z,96415.00
2022-12-12T21:09:32.294Z,96403.00
2022-12-12T21:12:00.764Z,96415.00
2022-12-12T21:14:30.791Z,96374.00
2022-12-12T21:16:59.038Z,96379.00
2022-12-12T21:19:28.450Z,96382.00
2022-12-12T21:21:56.767Z,96383.00
2022-12-12T21:24:24.869Z,96389.00
2022-12-12T21:26:52.926Z,96392.00
2022-12-12T21:29:21.106Z,96395.00
2022-12-12T21:31:52.171Z,96367.00
2022-12-12T21:34:22.292Z,96379.00
2022-12-12T21:36:57.083Z,96392.00
2022-12-12T21:39:28.169Z,96392.00
2022-12-12T21:41:57.310Z,96388.00
2022-12-12T21:44:25.944Z,96382.00
2022-12-12T21:46:54.097Z,96383.00
2022-12-12T21:49:27.540Z,96355.00
2022-12-12T21:51:59.769Z,96366.00
2022-12-12T21:54:29.957Z,96362.00
2022-12-12T21:56:59.809Z,96370.00
2022-12-12T21:59:28.725Z,96369.00
2022-12-12T22:01:59.382Z,96358.00
2022-12-12T22:04:28.429Z,96364.00
2022-12-12T22:06:58.483Z,96374.00
2022-12-12T22:09:27.739Z,96370.00
2022-12-12T22:12:03.102Z,96375.00
2022-12-12T22:14:33.829Z,96394.00
2022-12-12T22:17:02.624Z,96392.00
2022-12-12T22:19:30.745Z,96376.00
2022-12-12T22:22:00.414Z,96371.00
2022-12-12T22:24:29.665Z,96408.00
2022-12-12T22:26:57.775Z,96248.00
2022-12-12T22:29:25.971Z,96387.00
2022-12-12T22:31:54.089Z,96387.00
2022-12-12T22:34:24.920Z,96376.00
2022-12-12T22:36:54.663Z,96287.00
2022-12-12T22:39:26.792Z,96363.00
2022-12-12T22:41:57.044Z,96386.00
2022-12-12T22:44:27.197Z,96367.00
2022-12-12T22:46:56.505Z,96345.00
2022-12-12T22:49:27.401Z,96341.00
2022-12-12T22:51:57.450Z,96352.00
2022-12-12T22:54:27.799Z,96333.00
2022-12-12T22:56:55.851Z,96336.00
2022-12-12T22:59:25.359Z,96346.00
2022-12-12T23:01:53.570Z,96217.00
2022-12-12T23:04:21.797Z,96334.00
2022-12-12T23:06:49.968Z,96336.00
2022-12-12T23:09:21.641Z,96325.00
2022-12-12T23:11:51.707Z,96311.00
2022-12-12T23:14:22.807Z,96324.00
2022-12-12T23:16:51.817Z,96321.00
2022-12-12T23:19:25.765Z,96338.00
2022-12-12T23:21:53.825Z,96322.00
2022-12-12T23:24:22.019Z,96333.00
2022-12-12T23:26:53.124Z,96324.00
2022-12-12T23:29:21.602Z,96321.00
2022-12-12T23:31:50.023Z,96314.00
2022-12-12T23:34:23.103Z,96313.00
2022-12-12T23:36:51.722Z,96315.00
2022-12-12T23:39:20.217Z,96302.00
2022-12-12T23:41:49.270Z,96296.00
2022-12-12T23:44:22.080Z,96341.00
2022-12-12T23:46:52.149Z,96300.00
2022-12-12T23:49:22.780Z,96296.00
2022-12-12T23:51:53.224Z,96317.00
2022-12-12T23:54:25.401Z,96307.00
2022-12-12T23:56:53.992Z,96317.00
2022-12-12T23:59:23.404Z,96316.00
